sensor_id;sensor_type;location;lat;lon;timestamp;P1;durP1;ratioP1;P2;durP2;ratioP2
53207;SDS011;39093;52.788;6.940;2023-03-12T00:00:05;16.63;;;6.97;;
53207;SDS011;39093;52.788;6.940;2023-03-12T00:02:36;12.45;;;6.50;;
53207;SDS011;39093;52.788;6.940;2023-03-12T00:05:03;12.00;;;5.45;;
53207;SDS011;39093;52.788;6.940;2023-03-12T00:07:31;11.00;;;5.90;;
53207;SDS011;39093;52.788;6.940;2023-03-12T00:09:58;8.68;;;5.20;;
53207;SDS011;39093;52.788;6.940;2023-03-12T00:12:24;14.73;;;6.25;;
53207;SDS011;39093;52.788;6.940;2023-03-12T00:14:51;11.40;;;6.45;;
53207;SDS011;39093;52.788;6.940;2023-03-12T00:17:18;15.35;;;6.80;;
53207;SDS011;39093;52.788;6.940;2023-03-12T00:19:45;15.85;;;7.40;;
53207;SDS011;39093;52.788;6.940;2023-03-12T00:22:16;12.75;;;8.00;;
53207;SDS011;39093;52.788;6.940;2023-03-12T00:24:43;21.80;;;8.40;;
53207;SDS011;39093;52.788;6.940;2023-03-12T00:27:10;16.55;;;8.98;;
53207;SDS011;39093;52.788;6.940;2023-03-12T00:29:36;17.27;;;9.18;;
53207;SDS011;39093;52.788;6.940;2023-03-12T00:32:03;12.32;;;8.32;;
53207;SDS011;39093;52.788;6.940;2023-03-12T00:34:30;14.10;;;7.93;;
53207;SDS011;39093;52.788;6.940;2023-03-12T00:36:57;17.17;;;7.15;;
53207;SDS011;39093;52.788;6.940;2023-03-12T00:39:24;16.48;;;6.47;;
53207;SDS011;39093;52.788;6.940;2023-03-12T00:41:51;14.23;;;5.30;;
53207;SDS011;39093;52.788;6.940;2023-03-12T00:44:18;9.52;;;4.93;;
53207;SDS011;39093;52.788;6.940;2023-03-12T00:46:45;8.60;;;5.20;;
53207;SDS011;39093;52.788;6.940;2023-03-12T00:49:12;12.55;;;4.93;;
53207;SDS011;39093;52.788;6.940;2023-03-12T00:51:39;10.80;;;5.38;;
53207;SDS011;39093;52.788;6.940;2023-03-12T00:54:06;9.15;;;4.63;;
53207;SDS011;39093;52.788;6.940;2023-03-12T00:56:33;8.75;;;4.75;;
53207;SDS011;39093;52.788;6.940;2023-03-12T00:58:59;9.90;;;4.38;;
53207;SDS011;39093;52.788;6.940;2023-03-12T01:01:26;5.93;;;4.15;;
53207;SDS011;39093;52.788;6.940;2023-03-12T01:03:53;9.35;;;5.40;;
53207;SDS011;39093;52.788;6.940;2023-03-12T01:06:21;12.63;;;4.75;;
53207;SDS011;39093;52.788;6.940;2023-03-12T01:08:47;9.90;;;4.82;;
53207;SDS011;39093;52.788;6.940;2023-03-12T01:11:18;7.82;;;4.75;;
53207;SDS011;39093;52.788;6.940;2023-03-12T01:13:47;12.10;;;4.90;;
53207;SDS011;39093;52.788;6.940;2023-03-12T01:16:14;8.88;;;4.72;;
53207;SDS011;39093;52.788;6.940;2023-03-12T01:18:41;7.45;;;4.85;;
53207;SDS011;39093;52.788;6.940;2023-03-12T01:21:08;14.30;;;4.85;;
53207;SDS011;39093;52.788;6.940;2023-03-12T01:23:36;6.53;;;4.10;;
53207;SDS011;39093;52.788;6.940;2023-03-12T01:26:03;8.15;;;4.43;;
53207;SDS011;39093;52.788;6.940;2023-03-12T01:28:30;8.50;;;4.30;;
53207;SDS011;39093;52.788;6.940;2023-03-12T01:30:57;9.30;;;4.47;;
53207;SDS011;39093;52.788;6.940;2023-03-12T01:33:24;11.80;;;4.43;;
53207;SDS011;39093;52.788;6.940;2023-03-12T01:35:50;10.07;;;4.60;;
53207;SDS011;39093;52.788;6.940;2023-03-12T01:38:17;10.05;;;4.50;;
53207;SDS011;39093;52.788;6.940;2023-03-12T01:40:46;6.88;;;4.43;;
53207;SDS011;39093;52.788;6.940;2023-03-12T01:48:40;9.57;;;4.28;;
53207;SDS011;39093;52.788;6.940;2023-03-12T01:51:11;7.70;;;4.40;;
53207;SDS011;39093;52.788;6.940;2023-03-12T01:53:41;7.88;;;4.05;;
53207;SDS011;39093;52.788;6.940;2023-03-12T01:56:10;9.45;;;4.40;;
53207;SDS011;39093;52.788;6.940;2023-03-12T01:58:39;8.48;;;3.83;;
53207;SDS011;39093;52.788;6.940;2023-03-12T02:01:10;14.88;;;3.95;;
53207;SDS011;39093;52.788;6.940;2023-03-12T02:03:39;10.00;;;4.18;;
53207;SDS011;39093;52.788;6.940;2023-03-12T02:06:08;6.75;;;4.13;;
53207;SDS011;39093;52.788;6.940;2023-03-12T02:08:40;8.10;;;4.80;;
53207;SDS011;39093;52.788;6.940;2023-03-12T02:11:10;8.80;;;5.40;;
53207;SDS011;39093;52.788;6.940;2023-03-12T02:13:37;7.43;;;4.18;;
53207;SDS011;39093;52.788;6.940;2023-03-12T02:16:04;11.00;;;5.32;;
53207;SDS011;39093;52.788;6.940;2023-03-12T02:18:33;8.77;;;5.05;;
53207;SDS011;39093;52.788;6.940;2023-03-12T02:21:12;14.05;;;4.72;;
53207;SDS011;39093;52.788;6.940;2023-03-12T02:26:49;7.13;;;4.32;;
53207;SDS011;39093;52.788;6.940;2023-03-12T02:29:17;14.52;;;4.90;;
53207;SDS011;39093;52.788;6.940;2023-03-12T02:31:49;9.30;;;4.75;;
53207;SDS011;39093;52.788;6.940;2023-03-12T02:34:20;8.27;;;3.97;;
53207;SDS011;39093;52.788;6.940;2023-03-12T02:36:47;10.38;;;4.63;;
53207;SDS011;39093;52.788;6.940;2023-03-12T02:39:14;6.85;;;3.88;;
53207;SDS011;39093;52.788;6.940;2023-03-12T02:41:43;10.63;;;5.03;;
53207;SDS011;39093;52.788;6.940;2023-03-12T02:44:15;8.73;;;4.40;;
53207;SDS011;39093;52.788;6.940;2023-03-12T02:46:49;9.02;;;4.22;;
53207;SDS011;39093;52.788;6.940;2023-03-12T02:49:18;7.97;;;4.72;;
53207;SDS011;39093;52.788;6.940;2023-03-12T02:51:48;7.57;;;4.30;;
53207;SDS011;39093;52.788;6.940;2023-03-12T02:54:16;7.95;;;3.95;;
53207;SDS011;39093;52.788;6.940;2023-03-12T02:56:44;7.70;;;4.32;;
53207;SDS011;39093;52.788;6.940;2023-03-12T02:59:12;10.15;;;4.70;;
53207;SDS011;39093;52.788;6.940;2023-03-12T03:01:39;9.10;;;4.47;;
53207;SDS011;39093;52.788;6.940;2023-03-12T03:04:09;8.13;;;4.55;;
53207;SDS011;39093;52.788;6.940;2023-03-12T03:06:41;11.77;;;4.05;;
53207;SDS011;39093;52.788;6.940;2023-03-12T03:09:09;8.35;;;3.42;;
53207;SDS011;39093;52.788;6.940;2023-03-12T03:11:36;11.00;;;4.93;;
53207;SDS011;39093;52.788;6.940;2023-03-12T03:14:03;7.88;;;4.30;;
53207;SDS011;39093;52.788;6.940;2023-03-12T03:16:32;12.07;;;4.53;;
53207;SDS011;39093;52.788;6.940;2023-03-12T03:18:59;8.70;;;4.15;;
53207;SDS011;39093;52.788;6.940;2023-03-12T03:21:27;9.98;;;4.75;;
53207;SDS011;39093;52.788;6.940;2023-03-12T03:23:54;12.85;;;4.75;;
53207;SDS011;39093;52.788;6.940;2023-03-12T03:26:21;14.13;;;5.03;;
53207;SDS011;39093;52.788;6.940;2023-03-12T03:28:49;10.05;;;4.97;;
53207;SDS011;39093;52.788;6.940;2023-03-12T03:31:16;7.90;;;4.93;;
53207;SDS011;39093;52.788;6.940;2023-03-12T03:33:44;8.57;;;4.97;;
53207;SDS011;39093;52.788;6.940;2023-03-12T03:36:11;10.75;;;4.43;;
53207;SDS011;39093;52.788;6.940;2023-03-12T03:38:40;10.68;;;4.47;;
53207;SDS011;39093;52.788;6.940;2023-03-12T03:41:09;9.40;;;4.53;;
53207;SDS011;39093;52.788;6.940;2023-03-12T03:43:36;11.27;;;5.45;;
53207;SDS011;39093;52.788;6.940;2023-03-12T03:46:03;11.63;;;4.32;;
53207;SDS011;39093;52.788;6.940;2023-03-12T03:48:31;9.63;;;4.78;;
53207;SDS011;39093;52.788;6.940;2023-03-12T03:50:58;9.65;;;4.78;;
53207;SDS011;39093;52.788;6.940;2023-03-12T03:53:26;10.93;;;5.90;;
53207;SDS011;39093;52.788;6.940;2023-03-12T03:55:53;9.75;;;5.32;;
53207;SDS011;39093;52.788;6.940;2023-03-12T03:58:20;7.38;;;4.93;;
53207;SDS011;39093;52.788;6.940;2023-03-12T04:00:47;10.52;;;5.30;;
53207;SDS011;39093;52.788;6.940;2023-03-12T04:03:15;12.02;;;5.47;;
53207;SDS011;39093;52.788;6.940;2023-03-12T04:05:42;7.68;;;5.40;;
53207;SDS011;39093;52.788;6.940;2023-03-12T04:08:11;9.60;;;5.03;;
53207;SDS011;39093;52.788;6.940;2023-03-12T04:10:38;9.88;;;5.53;;
53207;SDS011;39093;52.788;6.940;2023-03-12T04:13:06;12.35;;;5.60;;
53207;SDS011;39093;52.788;6.940;2023-03-12T04:15:32;14.48;;;5.88;;
53207;SDS011;39093;52.788;6.940;2023-03-12T04:18:00;9.27;;;5.13;;
53207;SDS011;39093;52.788;6.940;2023-03-12T04:20:27;11.75;;;5.47;;
53207;SDS011;39093;52.788;6.940;2023-03-12T04:22:54;12.82;;;5.15;;
53207;SDS011;39093;52.788;6.940;2023-03-12T04:25:20;9.35;;;4.93;;
53207;SDS011;39093;52.788;6.940;2023-03-12T04:27:47;11.30;;;5.22;;
53207;SDS011;39093;52.788;6.940;2023-03-12T04:30:14;9.57;;;5.78;;
53207;SDS011;39093;52.788;6.940;2023-03-12T04:32:41;7.45;;;4.80;;
53207;SDS011;39093;52.788;6.940;2023-03-12T04:35:08;12.32;;;5.50;;
53207;SDS011;39093;52.788;6.940;2023-03-12T04:37:35;10.40;;;6.10;;
53207;SDS011;39093;52.788;6.940;2023-03-12T04:40:02;9.90;;;5.15;;
53207;SDS011;39093;52.788;6.940;2023-03-12T04:42:33;14.45;;;5.85;;
53207;SDS011;39093;52.788;6.940;2023-03-12T04:45:02;11.68;;;4.95;;
53207;SDS011;39093;52.788;6.940;2023-03-12T04:47:31;15.52;;;5.75;;
53207;SDS011;39093;52.788;6.940;2023-03-12T04:49:59;14.05;;;5.50;;
53207;SDS011;39093;52.788;6.940;2023-03-12T04:52:26;12.10;;;5.72;;
53207;SDS011;39093;52.788;6.940;2023-03-12T04:54:53;12.10;;;5.95;;
53207;SDS011;39093;52.788;6.940;2023-03-12T04:57:20;10.75;;;5.00;;
53207;SDS011;39093;52.788;6.940;2023-03-12T04:59:47;9.63;;;5.20;;
53207;SDS011;39093;52.788;6.940;2023-03-12T05:02:14;15.32;;;5.53;;
53207;SDS011;39093;52.788;6.940;2023-03-12T05:04:41;10.98;;;5.63;;
53207;SDS011;39093;52.788;6.940;2023-03-12T05:07:08;15.45;;;5.68;;
53207;SDS011;39093;52.788;6.940;2023-03-12T05:09:35;9.65;;;5.70;;
53207;SDS011;39093;52.788;6.940;2023-03-12T05:12:02;14.57;;;5.03;;
53207;SDS011;39093;52.788;6.940;2023-03-12T05:14:29;13.23;;;5.32;;
53207;SDS011;39093;52.788;6.940;2023-03-12T05:16:55;8.88;;;4.93;;
53207;SDS011;39093;52.788;6.940;2023-03-12T05:19:22;7.07;;;4.80;;
53207;SDS011;39093;52.788;6.940;2023-03-12T05:21:49;8.27;;;4.93;;
53207;SDS011;39093;52.788;6.940;2023-03-12T05:24:16;6.90;;;4.40;;
53207;SDS011;39093;52.788;6.940;2023-03-12T05:26:44;10.73;;;4.95;;
53207;SDS011;39093;52.788;6.940;2023-03-12T05:29:11;13.13;;;5.57;;
53207;SDS011;39093;52.788;6.940;2023-03-12T05:31:37;13.70;;;5.65;;
53207;SDS011;39093;52.788;6.940;2023-03-12T05:34:04;15.82;;;5.90;;
53207;SDS011;39093;52.788;6.940;2023-03-12T05:36:32;15.82;;;5.95;;
53207;SDS011;39093;52.788;6.940;2023-03-12T05:38:58;17.15;;;5.25;;
53207;SDS011;39093;52.788;6.940;2023-03-12T05:41:26;10.48;;;5.38;;
53207;SDS011;39093;52.788;6.940;2023-03-12T05:43:55;6.97;;;4.68;;
53207;SDS011;39093;52.788;6.940;2023-03-12T05:46:23;10.52;;;4.68;;
53207;SDS011;39093;52.788;6.940;2023-03-12T05:48:51;9.43;;;4.78;;
53207;SDS011;39093;52.788;6.940;2023-03-12T05:51:19;8.82;;;5.25;;
53207;SDS011;39093;52.788;6.940;2023-03-12T05:53:46;12.20;;;5.55;;
53207;SDS011;39093;52.788;6.940;2023-03-12T05:56:14;8.02;;;4.50;;
53207;SDS011;39093;52.788;6.940;2023-03-12T05:58:43;8.70;;;5.25;;
53207;SDS011;39093;52.788;6.940;2023-03-12T06:01:11;12.93;;;5.43;;
53207;SDS011;39093;52.788;6.940;2023-03-12T06:03:48;12.00;;;5.53;;
53207;SDS011;39093;52.788;6.940;2023-03-12T06:06:16;14.55;;;5.30;;
53207;SDS011;39093;52.788;6.940;2023-03-12T06:08:43;10.65;;;4.68;;
53207;SDS011;39093;52.788;6.940;2023-03-12T06:11:11;11.88;;;5.85;;
53207;SDS011;39093;52.788;6.940;2023-03-12T06:13:38;8.70;;;5.07;;
53207;SDS011;39093;52.788;6.940;2023-03-12T06:16:07;10.95;;;5.43;;
53207;SDS011;39093;52.788;6.940;2023-03-12T06:18:37;10.57;;;6.15;;
53207;SDS011;39093;52.788;6.940;2023-03-12T06:21:23;10.50;;;5.43;;
53207;SDS011;39093;52.788;6.940;2023-03-12T06:23:52;9.45;;;5.82;;
53207;SDS011;39093;52.788;6.940;2023-03-12T06:26:20;8.77;;;5.28;;
53207;SDS011;39093;52.788;6.940;2023-03-12T06:28:48;9.35;;;5.25;;
53207;SDS011;39093;52.788;6.940;2023-03-12T06:31:16;8.75;;;5.32;;
53207;SDS011;39093;52.788;6.940;2023-03-12T06:33:44;9.48;;;5.97;;
53207;SDS011;39093;52.788;6.940;2023-03-12T06:36:11;13.05;;;5.75;;
53207;SDS011;39093;52.788;6.940;2023-03-12T06:38:39;10.05;;;6.70;;
53207;SDS011;39093;52.788;6.940;2023-03-12T06:41:11;12.20;;;6.10;;
53207;SDS011;39093;52.788;6.940;2023-03-12T06:43:40;9.05;;;5.72;;
53207;SDS011;39093;52.788;6.940;2023-03-12T06:46:08;10.85;;;5.18;;
53207;SDS011;39093;52.788;6.940;2023-03-12T06:48:38;9.75;;;5.65;;
53207;SDS011;39093;52.788;6.940;2023-03-12T06:51:07;12.07;;;5.13;;
53207;SDS011;39093;52.788;6.940;2023-03-12T06:53:35;11.98;;;6.38;;
53207;SDS011;39093;52.788;6.940;2023-03-12T06:56:06;11.45;;;5.90;;
53207;SDS011;39093;52.788;6.940;2023-03-12T06:58:33;9.50;;;5.07;;
53207;SDS011;39093;52.788;6.940;2023-03-12T07:01:00;12.02;;;6.30;;
53207;SDS011;39093;52.788;6.940;2023-03-12T07:03:27;12.52;;;6.15;;
53207;SDS011;39093;52.788;6.940;2023-03-12T07:05:54;15.70;;;5.85;;
53207;SDS011;39093;52.788;6.940;2023-03-12T07:08:22;12.98;;;5.90;;
53207;SDS011;39093;52.788;6.940;2023-03-12T07:10:49;7.25;;;5.45;;
53207;SDS011;39093;52.788;6.940;2023-03-12T07:13:16;12.98;;;5.82;;
53207;SDS011;39093;52.788;6.940;2023-03-12T07:15:43;12.27;;;5.22;;
53207;SDS011;39093;52.788;6.940;2023-03-12T07:18:12;13.45;;;5.93;;
53207;SDS011;39093;52.788;6.940;2023-03-12T07:20:40;12.43;;;5.57;;
53207;SDS011;39093;52.788;6.940;2023-03-12T07:23:08;11.70;;;5.78;;
53207;SDS011;39093;52.788;6.940;2023-03-12T07:25:37;6.78;;;5.05;;
53207;SDS011;39093;52.788;6.940;2023-03-12T07:28:06;17.08;;;6.00;;
53207;SDS011;39093;52.788;6.940;2023-03-12T07:30:33;11.30;;;5.93;;
53207;SDS011;39093;52.788;6.940;2023-03-12T07:33:00;12.25;;;5.97;;
53207;SDS011;39093;52.788;6.940;2023-03-12T07:35:31;13.77;;;5.72;;
53207;SDS011;39093;52.788;6.940;2023-03-12T07:37:59;6.93;;;4.80;;
53207;SDS011;39093;52.788;6.940;2023-03-12T07:40:27;10.98;;;5.38;;
53207;SDS011;39093;52.788;6.940;2023-03-12T07:42:54;8.30;;;5.40;;
53207;SDS011;39093;52.788;6.940;2023-03-12T07:45:21;10.10;;;5.25;;
53207;SDS011;39093;52.788;6.940;2023-03-12T07:47:48;9.52;;;6.07;;
53207;SDS011;39093;52.788;6.940;2023-03-12T07:50:16;14.20;;;6.13;;
53207;SDS011;39093;52.788;6.940;2023-03-12T07:52:44;12.43;;;6.22;;
53207;SDS011;39093;52.788;6.940;2023-03-12T07:55:12;12.85;;;5.95;;
53207;SDS011;39093;52.788;6.940;2023-03-12T07:57:39;11.30;;;5.90;;
53207;SDS011;39093;52.788;6.940;2023-03-12T08:00:10;14.57;;;6.53;;
53207;SDS011;39093;52.788;6.940;2023-03-12T08:02:37;11.70;;;6.60;;
53207;SDS011;39093;52.788;6.940;2023-03-12T08:05:06;9.82;;;5.82;;
53207;SDS011;39093;52.788;6.940;2023-03-12T08:07:33;11.98;;;5.95;;
53207;SDS011;39093;52.788;6.940;2023-03-12T08:10:02;14.35;;;5.90;;
53207;SDS011;39093;52.788;6.940;2023-03-12T08:12:31;22.45;;;7.25;;
53207;SDS011;39093;52.788;6.940;2023-03-12T08:14:58;10.75;;;5.93;;
53207;SDS011;39093;52.788;6.940;2023-03-12T08:17:25;10.77;;;5.30;;
53207;SDS011;39093;52.788;6.940;2023-03-12T08:19:52;14.70;;;6.10;;
53207;SDS011;39093;52.788;6.940;2023-03-12T08:22:19;7.50;;;5.53;;
53207;SDS011;39093;52.788;6.940;2023-03-12T08:24:46;8.95;;;6.03;;
53207;SDS011;39093;52.788;6.940;2023-03-12T08:27:13;12.25;;;6.03;;
53207;SDS011;39093;52.788;6.940;2023-03-12T08:29:40;10.27;;;5.65;;
53207;SDS011;39093;52.788;6.940;2023-03-12T08:32:10;11.40;;;6.80;;
53207;SDS011;39093;52.788;6.940;2023-03-12T08:34:37;9.68;;;5.90;;
53207;SDS011;39093;52.788;6.940;2023-03-12T08:37:04;13.27;;;6.90;;
53207;SDS011;39093;52.788;6.940;2023-03-12T08:39:31;15.80;;;6.45;;
53207;SDS011;39093;52.788;6.940;2023-03-12T08:41:58;13.07;;;6.45;;
53207;SDS011;39093;52.788;6.940;2023-03-12T08:44:26;12.10;;;5.88;;
53207;SDS011;39093;52.788;6.940;2023-03-12T08:46:53;11.40;;;6.82;;
53207;SDS011;39093;52.788;6.940;2023-03-12T08:49:20;13.15;;;7.90;;
53207;SDS011;39093;52.788;6.940;2023-03-12T08:51:48;14.40;;;6.30;;
53207;SDS011;39093;52.788;6.940;2023-03-12T08:54:17;17.25;;;6.22;;
53207;SDS011;39093;52.788;6.940;2023-03-12T08:57:30;11.93;;;6.05;;
53207;SDS011;39093;52.788;6.940;2023-03-12T08:59:57;9.98;;;6.43;;
53207;SDS011;39093;52.788;6.940;2023-03-12T09:02:24;10.93;;;5.75;;
53207;SDS011;39093;52.788;6.940;2023-03-12T09:04:54;8.63;;;5.97;;
53207;SDS011;39093;52.788;6.940;2023-03-12T09:07:23;12.88;;;7.53;;
53207;SDS011;39093;52.788;6.940;2023-03-12T09:09:50;10.02;;;6.38;;
53207;SDS011;39093;52.788;6.940;2023-03-12T09:12:19;22.20;;;7.32;;
53207;SDS011;39093;52.788;6.940;2023-03-12T09:14:47;14.73;;;6.95;;
53207;SDS011;39093;52.788;6.940;2023-03-12T09:17:28;11.68;;;6.95;;
53207;SDS011;39093;52.788;6.940;2023-03-12T09:20:18;14.07;;;7.05;;
53207;SDS011;39093;52.788;6.940;2023-03-12T09:22:45;13.48;;;6.68;;
53207;SDS011;39093;52.788;6.940;2023-03-12T09:25:13;10.93;;;6.10;;
53207;SDS011;39093;52.788;6.940;2023-03-12T09:27:41;17.98;;;7.30;;
53207;SDS011;39093;52.788;6.940;2023-03-12T09:30:14;13.40;;;6.65;;
53207;SDS011;39093;52.788;6.940;2023-03-12T09:35:11;10.75;;;7.50;;
53207;SDS011;39093;52.788;6.940;2023-03-12T09:37:59;13.07;;;8.02;;
53207;SDS011;39093;52.788;6.940;2023-03-12T09:40:31;11.45;;;8.27;;
53207;SDS011;39093;52.788;6.940;2023-03-12T09:43:02;12.80;;;9.35;;
53207;SDS011;39093;52.788;6.940;2023-03-12T09:48:43;13.50;;;7.70;;
53207;SDS011;39093;52.788;6.940;2023-03-12T09:51:15;19.83;;;9.15;;
53207;SDS011;39093;52.788;6.940;2023-03-12T09:53:46;21.13;;;11.80;;
53207;SDS011;39093;52.788;6.940;2023-03-12T09:56:25;15.68;;;9.68;;
53207;SDS011;39093;52.788;6.940;2023-03-12T09:58:52;17.58;;;11.13;;
53207;SDS011;39093;52.788;6.940;2023-03-12T10:01:37;17.50;;;9.18;;
53207;SDS011;39093;52.788;6.940;2023-03-12T10:29:16;17.42;;;11.90;;
53207;SDS011;39093;52.788;6.940;2023-03-12T10:31:58;14.32;;;12.05;;
53207;SDS011;39093;52.788;6.940;2023-03-12T10:37:02;19.52;;;12.70;;
53207;SDS011;39093;52.788;6.940;2023-03-12T10:39:52;15.40;;;10.77;;
53207;SDS011;39093;52.788;6.940;2023-03-12T10:42:26;18.30;;;12.77;;
53207;SDS011;39093;52.788;6.940;2023-03-12T10:44:59;15.02;;;11.77;;
53207;SDS011;39093;52.788;6.940;2023-03-12T10:47:39;17.02;;;13.70;;
53207;SDS011;39093;52.788;6.940;2023-03-12T10:50:26;15.73;;;11.40;;
53207;SDS011;39093;52.788;6.940;2023-03-12T10:55:58;17.90;;;12.70;;
53207;SDS011;39093;52.788;6.940;2023-03-12T11:01:05;22.40;;;13.05;;
53207;SDS011;39093;52.788;6.940;2023-03-12T11:03:41;15.80;;;12.63;;
53207;SDS011;39093;52.788;6.940;2023-03-12T11:06:09;17.98;;;13.73;;
53207;SDS011;39093;52.788;6.940;2023-03-12T11:09:01;22.70;;;15.18;;
53207;SDS011;39093;52.788;6.940;2023-03-12T11:11:42;18.83;;;13.25;;
53207;SDS011;39093;52.788;6.940;2023-03-12T11:14:20;22.02;;;14.63;;
53207;SDS011;39093;52.788;6.940;2023-03-12T11:16:50;21.05;;;14.00;;
53207;SDS011;39093;52.788;6.940;2023-03-12T11:19:25;17.58;;;13.27;;
53207;SDS011;39093;52.788;6.940;2023-03-12T11:21:58;24.60;;;13.88;;
53207;SDS011;39093;52.788;6.940;2023-03-12T11:24:27;16.63;;;13.13;;
53207;SDS011;39093;52.788;6.940;2023-03-12T11:27:00;23.33;;;14.50;;
53207;SDS011;39093;52.788;6.940;2023-03-12T11:29:42;19.60;;;13.50;;
53207;SDS011;39093;52.788;6.940;2023-03-12T11:32:18;16.60;;;13.70;;
53207;SDS011;39093;52.788;6.940;2023-03-12T11:35:00;20.70;;;14.70;;
53207;SDS011;39093;52.788;6.940;2023-03-12T11:57:03;23.98;;;20.10;;
53207;SDS011;39093;52.788;6.940;2023-03-12T12:06:06;28.58;;;20.52;;
53207;SDS011;39093;52.788;6.940;2023-03-12T12:17:35;29.00;;;19.60;;
53207;SDS011;39093;52.788;6.940;2023-03-12T12:22:58;25.25;;;17.55;;
53207;SDS011;39093;52.788;6.940;2023-03-12T12:31:14;23.60;;;16.85;;
53207;SDS011;39093;52.788;6.940;2023-03-12T12:36:26;30.20;;;18.95;;
53207;SDS011;39093;52.788;6.940;2023-03-12T12:39:00;25.10;;;17.50;;
53207;SDS011;39093;52.788;6.940;2023-03-12T12:41:41;33.22;;;20.02;;
53207;SDS011;39093;52.788;6.940;2023-03-12T12:44:24;34.47;;;19.60;;
53207;SDS011;39093;52.788;6.940;2023-03-12T12:46:57;30.40;;;20.35;;
53207;SDS011;39093;52.788;6.940;2023-03-12T12:49:44;32.80;;;18.17;;
53207;SDS011;39093;52.788;6.940;2023-03-12T12:52:18;30.27;;;20.77;;
53207;SDS011;39093;52.788;6.940;2023-03-12T13:03:13;33.28;;;20.48;;
53207;SDS011;39093;52.788;6.940;2023-03-12T13:05:52;31.73;;;21.92;;
53207;SDS011;39093;52.788;6.940;2023-03-12T13:16:33;47.33;;;22.00;;
53207;SDS011;39093;52.788;6.940;2023-03-12T13:19:04;47.42;;;25.15;;
53207;SDS011;39093;52.788;6.940;2023-03-12T13:27:30;52.58;;;25.83;;
53207;SDS011;39093;52.788;6.940;2023-03-12T13:35:30;58.05;;;29.38;;
53207;SDS011;39093;52.788;6.940;2023-03-12T13:38:03;68.65;;;29.83;;
53207;SDS011;39093;52.788;6.940;2023-03-12T13:40:38;67.60;;;31.00;;
53207;SDS011;39093;52.788;6.940;2023-03-12T13:46:06;78.35;;;33.58;;
53207;SDS011;39093;52.788;6.940;2023-03-12T13:48:46;75.88;;;34.53;;
53207;SDS011;39093;52.788;6.940;2023-03-12T13:51:18;75.40;;;33.60;;
53207;SDS011;39093;52.788;6.940;2023-03-12T13:53:49;75.35;;;33.65;;
53207;SDS011;39093;52.788;6.940;2023-03-12T13:56:28;79.30;;;33.53;;
53207;SDS011;39093;52.788;6.940;2023-03-12T13:59:01;95.15;;;37.40;;
53207;SDS011;39093;52.788;6.940;2023-03-12T14:01:36;79.40;;;34.78;;
53207;SDS011;39093;52.788;6.940;2023-03-12T14:04:11;92.95;;;38.05;;
53207;SDS011;39093;52.788;6.940;2023-03-12T14:09:30;66.85;;;33.60;;
53207;SDS011;39093;52.788;6.940;2023-03-12T14:18:20;73.78;;;32.95;;
53207;SDS011;39093;52.788;6.940;2023-03-12T14:20:53;99.68;;;34.90;;
53207;SDS011;39093;52.788;6.940;2023-03-12T14:23:27;83.72;;;34.00;;
53207;SDS011;39093;52.788;6.940;2023-03-12T14:25:59;94.22;;;34.15;;
53207;SDS011;39093;52.788;6.940;2023-03-12T14:28:29;80.30;;;32.50;;
53207;SDS011;39093;52.788;6.940;2023-03-12T14:33:46;81.53;;;29.02;;
53207;SDS011;39093;52.788;6.940;2023-03-12T14:36:25;79.82;;;29.73;;
53207;SDS011;39093;52.788;6.940;2023-03-12T14:41:49;73.13;;;28.83;;
53207;SDS011;39093;52.788;6.940;2023-03-12T14:44:24;75.93;;;29.05;;
53207;SDS011;39093;52.788;6.940;2023-03-12T14:46:57;72.63;;;28.23;;
53207;SDS011;39093;52.788;6.940;2023-03-12T14:49:38;70.68;;;26.98;;
53207;SDS011;39093;52.788;6.940;2023-03-12T14:52:10;76.95;;;28.95;;
53207;SDS011;39093;52.788;6.940;2023-03-12T14:54:56;79.50;;;28.33;;
53207;SDS011;39093;52.788;6.940;2023-03-12T14:57:33;78.15;;;26.00;;
53207;SDS011;39093;52.788;6.940;2023-03-12T15:00:00;81.50;;;26.23;;
53207;SDS011;39093;52.788;6.940;2023-03-12T15:02:28;69.43;;;26.73;;
53207;SDS011;39093;52.788;6.940;2023-03-12T15:04:57;68.47;;;25.88;;
53207;SDS011;39093;52.788;6.940;2023-03-12T15:07:31;79.32;;;25.52;;
53207;SDS011;39093;52.788;6.940;2023-03-12T15:10:01;73.50;;;25.13;;
53207;SDS011;39093;52.788;6.940;2023-03-12T15:12:35;72.28;;;23.83;;
53207;SDS011;39093;52.788;6.940;2023-03-12T15:15:07;68.63;;;23.50;;
53207;SDS011;39093;52.788;6.940;2023-03-12T15:17:36;69.88;;;22.75;;
53207;SDS011;39093;52.788;6.940;2023-03-12T15:20:04;66.57;;;21.92;;
53207;SDS011;39093;52.788;6.940;2023-03-12T15:22:34;72.20;;;24.42;;
53207;SDS011;39093;52.788;6.940;2023-03-12T15:28:33;71.43;;;22.60;;
53207;SDS011;39093;52.788;6.940;2023-03-12T15:31:13;58.42;;;17.35;;
53207;SDS011;39093;52.788;6.940;2023-03-12T15:33:58;72.15;;;19.58;;
53207;SDS011;39093;52.788;6.940;2023-03-12T15:36:27;69.25;;;19.38;;
53207;SDS011;39093;52.788;6.940;2023-03-12T15:39:00;85.57;;;20.00;;
53207;SDS011;39093;52.788;6.940;2023-03-12T15:41:50;82.00;;;19.33;;
53207;SDS011;39093;52.788;6.940;2023-03-12T15:44:33;75.00;;;18.08;;
53207;SDS011;39093;52.788;6.940;2023-03-12T15:47:11;68.50;;;16.75;;
53207;SDS011;39093;52.788;6.940;2023-03-12T15:49:40;64.95;;;16.38;;
53207;SDS011;39093;52.788;6.940;2023-03-12T15:55:55;74.13;;;14.57;;
53207;SDS011;39093;52.788;6.940;2023-03-12T15:58:45;77.68;;;15.35;;
53207;SDS011;39093;52.788;6.940;2023-03-12T16:01:16;74.93;;;15.93;;
53207;SDS011;39093;52.788;6.940;2023-03-12T16:03:53;71.25;;;13.48;;
53207;SDS011;39093;52.788;6.940;2023-03-12T16:06:21;64.03;;;12.95;;
53207;SDS011;39093;52.788;6.940;2023-03-12T16:08:52;71.00;;;11.98;;
53207;SDS011;39093;52.788;6.940;2023-03-12T16:11:29;70.00;;;11.73;;
53207;SDS011;39093;52.788;6.940;2023-03-12T16:14:02;62.25;;;10.65;;
53207;SDS011;39093;52.788;6.940;2023-03-12T16:19:37;58.75;;;12.40;;
53207;SDS011;39093;52.788;6.940;2023-03-12T16:22:05;63.50;;;13.35;;
53207;SDS011;39093;52.788;6.940;2023-03-12T16:24:38;51.85;;;10.05;;
53207;SDS011;39093;52.788;6.940;2023-03-12T16:27:09;66.90;;;12.25;;
53207;SDS011;39093;52.788;6.940;2023-03-12T16:29:45;61.92;;;12.38;;
53207;SDS011;39093;52.788;6.940;2023-03-12T16:32:13;71.22;;;12.55;;
53207;SDS011;39093;52.788;6.940;2023-03-12T16:34:42;68.68;;;10.82;;
53207;SDS011;39093;52.788;6.940;2023-03-12T16:37:14;59.15;;;10.38;;
53207;SDS011;39093;52.788;6.940;2023-03-12T16:39:48;53.40;;;10.67;;
53207;SDS011;39093;52.788;6.940;2023-03-12T16:42:23;57.75;;;12.82;;
53207;SDS011;39093;52.788;6.940;2023-03-12T16:44:50;51.42;;;9.15;;
53207;SDS011;39093;52.788;6.940;2023-03-12T16:47:18;52.00;;;10.88;;
53207;SDS011;39093;52.788;6.940;2023-03-12T16:49:51;65.82;;;9.73;;
53207;SDS011;39093;52.788;6.940;2023-03-12T16:52:19;70.85;;;11.65;;
53207;SDS011;39093;52.788;6.940;2023-03-12T16:55:01;53.15;;;9.27;;
53207;SDS011;39093;52.788;6.940;2023-03-12T16:57:30;56.95;;;9.50;;
53207;SDS011;39093;52.788;6.940;2023-03-12T17:00:19;49.20;;;7.75;;
53207;SDS011;39093;52.788;6.940;2023-03-12T17:02:48;54.88;;;9.88;;
53207;SDS011;39093;52.788;6.940;2023-03-12T17:05:17;53.50;;;9.18;;
53207;SDS011;39093;52.788;6.940;2023-03-12T17:07:44;53.47;;;10.98;;
53207;SDS011;39093;52.788;6.940;2023-03-12T17:10:13;42.80;;;8.13;;
53207;SDS011;39093;52.788;6.940;2023-03-12T17:12:41;63.30;;;10.57;;
53207;SDS011;39093;52.788;6.940;2023-03-12T17:17:54;50.47;;;8.73;;
53207;SDS011;39093;52.788;6.940;2023-03-12T17:20:24;46.50;;;7.75;;
53207;SDS011;39093;52.788;6.940;2023-03-12T17:22:51;43.83;;;7.78;;